Andyville, Minnesota
Current Conditions -  °F | °C
As of 4:36 AM on Friday 24 Oct 2014 (Local Time) from KAUM Reporting Station
Moderate Fog Moderate Fog  
Wind Chill: 42°   Ceiling: 200
Heat Index: 45°   Visibility: 0.5mi
Dew Point: 45°   Wind: 5mph
Humidity: 100%   Direction: 140°SE
Pressure: 29.97"   Gusts: NA
Location:  43.7173°N, 92.9889°W
Report Text: KAUM 240936Z AUTO 14004KT 1/2SM FG OVC002 07/07 A2997 RMK AO2
Loading
Personal Weather Stations






























Interactive Weather Map
Tropical Storm Tracking
New forecast layout! Learn more

10-Day Weather Forecast

Advertisements
Track Severe Weather on mobile